sensor_id;sensor_type;location;lat;lon;timestamp;pressure;altitude;pressure_sealevel;temperature;humidity
59043;BME280;44826;51.596;5.624;2023-05-12T00:02:13;101494.69;;;12.32;98.04
59043;BME280;44826;51.596;5.624;2023-05-12T00:04:38;101492.19;;;12.28;98.22
59043;BME280;44826;51.596;5.624;2023-05-12T00:07:04;101488.81;;;12.23;97.89
59043;BME280;44826;51.596;5.624;2023-05-12T00:09:31;101484.59;;;12.18;97.46
59043;BME280;44826;51.596;5.624;2023-05-12T00:11:56;101487.28;;;12.13;96.91
59043;BME280;44826;51.596;5.624;2023-05-12T00:14:21;101492.59;;;12.10;98.05
59043;BME280;44826;51.596;5.624;2023-05-12T00:16:47;101489.16;;;12.08;97.34
59043;BME280;44826;51.596;5.624;2023-05-12T00:19:17;101486.66;;;12.03;97.20
59043;BME280;44826;51.596;5.624;2023-05-12T00:21:43;101489.31;;;12.00;96.79
59043;BME280;44826;51.596;5.624;2023-05-12T00:24:08;101485.94;;;11.93;96.58
59043;BME280;44826;51.596;5.624;2023-05-12T00:26:33;101492.06;;;11.92;96.68
59043;BME280;44826;51.596;5.624;2023-05-12T00:28:59;101486.03;;;11.89;97.07
59043;BME280;44826;51.596;5.624;2023-05-12T00:31:24;101487.00;;;11.84;97.28
59043;BME280;44826;51.596;5.624;2023-05-12T00:33:49;101482.63;;;11.85;97.78
59043;BME280;44826;51.596;5.624;2023-05-12T00:36:15;101487.84;;;11.85;97.57
59043;BME280;44826;51.596;5.624;2023-05-12T00:38:40;101487.00;;;11.84;97.46
59043;BME280;44826;51.596;5.624;2023-05-12T00:41:06;101485.34;;;11.80;97.29
59043;BME280;44826;51.596;5.624;2023-05-12T00:43:31;101487.16;;;11.77;97.36
59043;BME280;44826;51.596;5.624;2023-05-12T00:45:58;101484.59;;;11.74;97.83
59043;BME280;44826;51.596;5.624;2023-05-12T00:48:23;101475.91;;;11.73;97.52
59043;BME280;44826;51.596;5.624;2023-05-12T00:50:49;101483.78;;;11.70;97.91
59043;BME280;44826;51.596;5.624;2023-05-12T00:53:14;101479.50;;;11.67;97.79
59043;BME280;44826;51.596;5.624;2023-05-12T00:55:40;101480.41;;;11.66;98.25
59043;BME280;44826;51.596;5.624;2023-05-12T00:58:06;101481.28;;;11.65;98.23
59043;BME280;44826;51.596;5.624;2023-05-12T01:00:32;101471.72;;;11.66;98.25
59043;BME280;44826;51.596;5.624;2023-05-12T01:02:57;101470.91;;;11.62;98.00
59043;BME280;44826;51.596;5.624;2023-05-12T01:05:25;101470.06;;;11.62;98.77
59043;BME280;44826;51.596;5.624;2023-05-12T01:07:54;101471.75;;;11.64;97.41
59043;BME280;44826;51.596;5.624;2023-05-12T01:10:20;101471.88;;;11.58;97.63
59043;BME280;44826;51.596;5.624;2023-05-12T01:12:46;101464.06;;;11.58;98.62
59043;BME280;44826;51.596;5.624;2023-05-12T01:15:12;101460.63;;;11.56;98.67
59043;BME280;44826;51.596;5.624;2023-05-12T01:17:39;101470.19;;;11.56;99.29
59043;BME280;44826;51.596;5.624;2023-05-12T01:20:06;101465.84;;;11.56;99.41
59043;BME280;44826;51.596;5.624;2023-05-12T01:22:32;101461.47;;;11.57;99.47
59043;BME280;44826;51.596;5.624;2023-05-12T01:25:00;101457.97;;;11.58;99.86
59043;BME280;44826;51.596;5.624;2023-05-12T01:27:27;101457.94;;;11.61;99.49
59043;BME280;44826;51.596;5.624;2023-05-12T01:29:55;101462.28;;;11.60;99.51
59043;BME280;44826;51.596;5.624;2023-05-12T01:32:22;101464.03;;;11.60;99.18
59043;BME280;44826;51.596;5.624;2023-05-12T01:34:47;101462.34;;;11.57;99.12
59043;BME280;44826;51.596;5.624;2023-05-12T01:37:13;101451.09;;;11.55;99.24
59043;BME280;44826;51.596;5.624;2023-05-12T01:39:39;101450.25;;;11.53;99.20
59043;BME280;44826;51.596;5.624;2023-05-12T01:42:04;101455.53;;;11.50;99.62
59043;BME280;44826;51.596;5.624;2023-05-12T01:44:30;101448.59;;;11.49;99.56
59043;BME280;44826;51.596;5.624;2023-05-12T01:46:55;101451.34;;;11.43;99.83
59043;BME280;44826;51.596;5.624;2023-05-12T01:49:21;101445.31;;;11.41;98.92
59043;BME280;44826;51.596;5.624;2023-05-12T01:51:46;101440.09;;;11.41;98.38
59043;BME280;44826;51.596;5.624;2023-05-12T01:54:11;101438.47;;;11.33;99.03
59043;BME280;44826;51.596;5.624;2023-05-12T01:56:36;101439.41;;;11.31;99.22
59043;BME280;44826;51.596;5.624;2023-05-12T01:59:02;101435.09;;;11.28;99.61
59043;BME280;44826;51.596;5.624;2023-05-12T02:01:27;101442.09;;;11.26;99.29
59043;BME280;44826;51.596;5.624;2023-05-12T02:03:55;101437.84;;;11.20;99.30
59043;BME280;44826;51.596;5.624;2023-05-12T02:06:21;101445.69;;;11.19;99.41
59043;BME280;44826;51.596;5.624;2023-05-12T02:08:46;101440.53;;;11.16;99.39
59043;BME280;44826;51.596;5.624;2023-05-12T02:11:11;101442.31;;;11.14;99.79
59043;BME280;44826;51.596;5.624;2023-05-12T02:13:37;101440.59;;;11.14;99.94
59043;BME280;44826;51.596;5.624;2023-05-12T02:16:02;101431.91;;;11.14;100.00
59043;BME280;44826;51.596;5.624;2023-05-12T02:18:28;101435.38;;;11.13;100.00
59043;BME280;44826;51.596;5.624;2023-05-12T02:20:53;101433.66;;;11.12;99.55
59043;BME280;44826;51.596;5.624;2023-05-12T02:23:18;101432.03;;;11.07;99.98
59043;BME280;44826;51.596;5.624;2023-05-12T02:25:43;101419.91;;;11.06;100.00
59043;BME280;44826;51.596;5.624;2023-05-12T02:28:09;101421.66;;;11.04;100.00
59043;BME280;44826;51.596;5.624;2023-05-12T02:30:36;101423.41;;;11.04;100.00
59043;BME280;44826;51.596;5.624;2023-05-12T02:33:01;101426.00;;;11.04;100.00
59043;BME280;44826;51.596;5.624;2023-05-12T02:35:27;101415.66;;;11.01;100.00
59043;BME280;44826;51.596;5.624;2023-05-12T02:37:52;101412.19;;;11.00;100.00
59043;BME280;44826;51.596;5.624;2023-05-12T02:40:17;101410.47;;;10.99;100.00
59043;BME280;44826;51.596;5.624;2023-05-12T02:42:43;101407.03;;;10.99;100.00
59043;BME280;44826;51.596;5.624;2023-05-12T02:45:10;101406.16;;;10.98;100.00
59043;BME280;44826;51.596;5.624;2023-05-12T02:47:35;101409.63;;;10.99;100.00
59043;BME280;44826;51.596;5.624;2023-05-12T02:50:00;101402.72;;;10.96;100.00
59043;BME280;44826;51.596;5.624;2023-05-12T02:52:26;101398.38;;;10.95;100.00
59043;BME280;44826;51.596;5.624;2023-05-12T02:54:51;101398.38;;;10.95;100.00
59043;BME280;44826;51.596;5.624;2023-05-12T02:57:17;101399.28;;;10.94;100.00
59043;BME280;44826;51.596;5.624;2023-05-12T02:59:42;101393.28;;;10.90;100.00
59043;BME280;44826;51.596;5.624;2023-05-12T03:02:07;101394.97;;;10.93;100.00
59043;BME280;44826;51.596;5.624;2023-05-12T03:04:33;101388.84;;;10.94;100.00
59043;BME280;44826;51.596;5.624;2023-05-12T03:06:58;101398.38;;;10.97;100.00
59043;BME280;44826;51.596;5.624;2023-05-12T03:09:23;101396.59;;;10.99;100.00
59043;BME280;44826;51.596;5.624;2023-05-12T03:11:48;101388.81;;;10.97;100.00
59043;BME280;44826;51.596;5.624;2023-05-12T03:14:14;101391.41;;;10.97;100.00
59043;BME280;44826;51.596;5.624;2023-05-12T03:16:39;101391.41;;;10.97;100.00
59043;BME280;44826;51.596;5.624;2023-05-12T03:19:04;101393.16;;;10.97;100.00
59043;BME280;44826;51.596;5.624;2023-05-12T03:21:30;101382.78;;;10.95;100.00
59043;BME280;44826;51.596;5.624;2023-05-12T03:23:55;101380.16;;;10.95;100.00
59043;BME280;44826;51.596;5.624;2023-05-12T03:26:21;101385.38;;;10.95;100.00
59043;BME280;44826;51.596;5.624;2023-05-12T03:28:47;101378.44;;;10.94;100.00
59043;BME280;44826;51.596;5.624;2023-05-12T03:31:12;101380.16;;;10.95;100.00
59043;BME280;44826;51.596;5.624;2023-05-12T03:33:37;101371.47;;;10.96;100.00
59043;BME280;44826;51.596;5.624;2023-05-12T03:36:03;101368.88;;;10.96;100.00
59043;BME280;44826;51.596;5.624;2023-05-12T03:38:28;101370.59;;;10.97;100.00
59043;BME280;44826;51.596;5.624;2023-05-12T03:41:04;101366.25;;;10.96;100.00
59043;BME280;44826;51.596;5.624;2023-05-12T03:43:30;101363.69;;;10.95;100.00
59043;BME280;44826;51.596;5.624;2023-05-12T03:45:56;101359.34;;;10.95;100.00
59043;BME280;44826;51.596;5.624;2023-05-12T03:48:21;101358.50;;;10.95;100.00
59043;BME280;44826;51.596;5.624;2023-05-12T03:50:46;101357.63;;;10.94;100.00
59043;BME280;44826;51.596;5.624;2023-05-12T03:53:12;101358.44;;;10.98;100.00
59043;BME280;44826;51.596;5.624;2023-05-12T03:55:37;101359.28;;;10.98;100.00
59043;BME280;44826;51.596;5.624;2023-05-12T03:58:02;101357.56;;;10.99;100.00
59043;BME280;44826;51.596;5.624;2023-05-12T04:00:28;101361.00;;;10.99;100.00
59043;BME280;44826;51.596;5.624;2023-05-12T04:02:53;101364.47;;;11.00;100.00
59043;BME280;44826;51.596;5.624;2023-05-12T04:05:18;101356.66;;;11.00;100.00
59043;BME280;44826;51.596;5.624;2023-05-12T04:07:44;101359.22;;;11.01;100.00
59043;BME280;44826;51.596;5.624;2023-05-12T04:10:09;101355.75;;;11.02;100.00
59043;BME280;44826;51.596;5.624;2023-05-12T04:12:34;101354.03;;;11.01;100.00
59043;BME280;44826;51.596;5.624;2023-05-12T04:15:00;101359.19;;;11.03;100.00
59043;BME280;44826;51.596;5.624;2023-05-12T04:17:25;101359.19;;;11.04;100.00
59043;BME280;44826;51.596;5.624;2023-05-12T04:19:50;101366.06;;;11.07;100.00
59043;BME280;44826;51.596;5.624;2023-05-12T04:22:16;101363.47;;;11.07;100.00
59043;BME280;44826;51.596;5.624;2023-05-12T04:24:42;101361.69;;;11.09;100.00
59043;BME280;44826;51.596;5.624;2023-05-12T04:27:07;101361.66;;;11.11;100.00
59043;BME280;44826;51.596;5.624;2023-05-12T04:29:32;101365.97;;;11.12;100.00
59043;BME280;44826;51.596;5.624;2023-05-12T04:31:57;101360.75;;;11.12;100.00
59043;BME280;44826;51.596;5.624;2023-05-12T04:34:24;101365.97;;;11.12;100.00
59043;BME280;44826;51.596;5.624;2023-05-12T04:36:49;101357.25;;;11.13;100.00
59043;BME280;44826;51.596;5.624;2023-05-12T04:39:14;101355.50;;;11.15;100.00
59043;BME280;44826;51.596;5.624;2023-05-12T04:41:40;101353.75;;;11.15;100.00
59043;BME280;44826;51.596;5.624;2023-05-12T04:44:05;101360.66;;;11.18;100.00
59043;BME280;44826;51.596;5.624;2023-05-12T04:46:30;101362.38;;;11.19;100.00
59043;BME280;44826;51.596;5.624;2023-05-12T04:48:55;101357.13;;;11.20;100.00
59043;BME280;44826;51.596;5.624;2023-05-12T04:51:21;101370.94;;;11.24;100.00
59043;BME280;44826;51.596;5.624;2023-05-12T04:53:46;101366.56;;;11.26;100.00
59043;BME280;44826;51.596;5.624;2023-05-12T04:56:11;101366.56;;;11.26;100.00
59043;BME280;44826;51.596;5.624;2023-05-12T04:58:37;101376.91;;;11.29;100.00
59043;BME280;44826;51.596;5.624;2023-05-12T05:01:02;101376.91;;;11.31;100.00
59043;BME280;44826;51.596;5.624;2023-05-12T05:03:27;101374.25;;;11.32;100.00
59043;BME280;44826;51.596;5.624;2023-05-12T05:05:53;101378.56;;;11.35;100.00
59043;BME280;44826;51.596;5.624;2023-05-12T05:08:18;101385.44;;;11.37;100.00
59043;BME280;44826;51.596;5.624;2023-05-12T05:10:43;101381.06;;;11.39;100.00
59043;BME280;44826;51.596;5.624;2023-05-12T05:13:09;101387.09;;;11.42;100.00
59043;BME280;44826;51.596;5.624;2023-05-12T05:15:34;101386.22;;;11.43;100.00
59043;BME280;44826;51.596;5.624;2023-05-12T05:17:59;101387.84;;;11.47;100.00
59043;BME280;44826;51.596;5.624;2023-05-12T05:20:24;101390.44;;;11.48;100.00
59043;BME280;44826;51.596;5.624;2023-05-12T05:22:50;101392.16;;;11.49;100.00
59043;BME280;44826;51.596;5.624;2023-05-12T05:25:15;101398.19;;;11.51;100.00
59043;BME280;44826;51.596;5.624;2023-05-12T05:27:40;101402.44;;;11.56;100.00
59043;BME280;44826;51.596;5.624;2023-05-12T05:30:06;101403.25;;;11.58;100.00
59043;BME280;44826;51.596;5.624;2023-05-12T05:32:36;101411.91;;;11.60;100.00
59043;BME280;44826;51.596;5.624;2023-05-12T05:35:04;101414.44;;;11.63;100.00
59043;BME280;44826;51.596;5.624;2023-05-12T05:37:30;101410.03;;;11.66;100.00
59043;BME280;44826;51.596;5.624;2023-05-12T05:39:55;101404.75;;;11.69;100.00
59043;BME280;44826;51.596;5.624;2023-05-12T05:42:20;101416.84;;;11.74;100.00
59043;BME280;44826;51.596;5.624;2023-05-12T05:44:46;101419.38;;;11.77;100.00
59043;BME280;44826;51.596;5.624;2023-05-12T05:47:11;101422.72;;;11.82;100.00
59043;BME280;44826;51.596;5.624;2023-05-12T05:49:36;101427.78;;;11.90;100.00
59043;BME280;44826;51.596;5.624;2023-05-12T05:52:01;101426.75;;;11.97;100.00
59043;BME280;44826;51.596;5.624;2023-05-12T05:54:27;101431.84;;;12.05;100.00
59043;BME280;44826;51.596;5.624;2023-05-12T05:56:52;101430.78;;;12.13;100.00
59043;BME280;44826;51.596;5.624;2023-05-12T05:59:17;101440.97;;;12.24;100.00
59043;BME280;44826;51.596;5.624;2023-05-12T06:01:43;101438.13;;;12.34;100.00
59043;BME280;44826;51.596;5.624;2023-05-12T06:04:09;101441.44;;;12.42;100.00
59043;BME280;44826;51.596;5.624;2023-05-12T06:06:35;101439.47;;;12.50;100.00
59043;BME280;44826;51.596;5.624;2023-05-12T06:09:00;101449.72;;;12.59;100.00
59043;BME280;44826;51.596;5.624;2023-05-12T06:11:25;101449.53;;;12.66;100.00
59043;BME280;44826;51.596;5.624;2023-05-12T06:13:51;101457.19;;;12.73;100.00
59043;BME280;44826;51.596;5.624;2023-05-12T06:16:16;101454.47;;;12.78;100.00
59043;BME280;44826;51.596;5.624;2023-05-12T06:18:42;101466.47;;;12.85;100.00
59043;BME280;44826;51.596;5.624;2023-05-12T06:21:07;101461.09;;;12.92;100.00
59043;BME280;44826;51.596;5.624;2023-05-12T06:23:32;101464.47;;;12.97;100.00
59043;BME280;44826;51.596;5.624;2023-05-12T06:25:57;101473.06;;;13.00;100.00
59043;BME280;44826;51.596;5.624;2023-05-12T06:28:23;101474.72;;;13.03;100.00
59043;BME280;44826;51.596;5.624;2023-05-12T06:30:48;101478.16;;;13.05;100.00
59043;BME280;44826;51.596;5.624;2023-05-12T06:33:13;101485.88;;;13.10;100.00
59043;BME280;44826;51.596;5.624;2023-05-12T06:35:39;101477.19;;;13.09;100.00
59043;BME280;44826;51.596;5.624;2023-05-12T06:38:04;101490.19;;;13.12;100.00
59043;BME280;44826;51.596;5.624;2023-05-12T06:40:29;101481.34;;;13.16;100.00
59043;BME280;44826;51.596;5.624;2023-05-12T06:42:54;101484.69;;;13.23;100.00
59043;BME280;44826;51.596;5.624;2023-05-12T06:45:20;101489.59;;;13.34;100.00
59043;BME280;44826;51.596;5.624;2023-05-12T06:47:47;101491.03;;;13.46;100.00
59043;BME280;44826;51.596;5.624;2023-05-12T06:50:12;101495.97;;;13.57;100.00
59043;BME280;44826;51.596;5.624;2023-05-12T06:52:39;101497.53;;;13.64;100.00
59043;BME280;44826;51.596;5.624;2023-05-12T06:55:05;101511.31;;;13.69;100.00
59043;BME280;44826;51.596;5.624;2023-05-12T06:57:31;101511.25;;;13.72;100.00
59043;BME280;44826;51.596;5.624;2023-05-12T06:59:56;101511.91;;;13.79;100.00
59043;BME280;44826;51.596;5.624;2023-05-12T07:02:21;101506.53;;;13.85;99.65
59043;BME280;44826;51.596;5.624;2023-05-12T07:04:47;101522.97;;;13.89;99.05
59043;BME280;44826;51.596;5.624;2023-05-12T07:07:12;101516.03;;;13.88;98.53
59043;BME280;44826;51.596;5.624;2023-05-12T07:09:37;101519.53;;;13.87;98.91
59043;BME280;44826;51.596;5.624;2023-05-12T07:12:05;101513.47;;;13.86;99.01
59043;BME280;44826;51.596;5.624;2023-05-12T07:14:30;101521.25;;;13.88;99.06
59043;BME280;44826;51.596;5.624;2023-05-12T07:16:56;101514.22;;;13.90;98.35
59043;BME280;44826;51.596;5.624;2023-05-12T07:19:21;101514.16;;;13.93;98.58
59043;BME280;44826;51.596;5.624;2023-05-12T07:21:46;101519.22;;;13.99;98.17
59043;BME280;44826;51.596;5.624;2023-05-12T07:24:12;101517.28;;;14.04;97.32
59043;BME280;44826;51.596;5.624;2023-05-12T07:26:38;101520.81;;;14.03;96.76
59043;BME280;44826;51.596;5.624;2023-05-12T07:29:03;101522.59;;;14.01;95.34
59043;BME280;44826;51.596;5.624;2023-05-12T07:31:29;101526.94;;;14.02;96.31
59043;BME280;44826;51.596;5.624;2023-05-12T07:33:55;101538.22;;;14.04;95.39
59043;BME280;44826;51.596;5.624;2023-05-12T07:36:20;101534.72;;;14.05;94.78
59043;BME280;44826;51.596;5.624;2023-05-12T07:38:46;101532.88;;;14.09;94.09
59043;BME280;44826;51.596;5.624;2023-05-12T07:41:11;101525.78;;;14.13;94.29
59043;BME280;44826;51.596;5.624;2023-05-12T07:43:36;101529.97;;;14.18;95.15
59043;BME280;44826;51.596;5.624;2023-05-12T07:46:02;101537.69;;;14.23;93.64
59043;BME280;44826;51.596;5.624;2023-05-12T07:48:27;101535.81;;;14.26;93.44
59043;BME280;44826;51.596;5.624;2023-05-12T07:50:52;101520.00;;;14.31;93.28
59043;BME280;44826;51.596;5.624;2023-05-12T07:53:18;101535.66;;;14.33;92.18
59043;BME280;44826;51.596;5.624;2023-05-12T07:55:44;101539.91;;;14.37;93.97
59043;BME280;44826;51.596;5.624;2023-05-12T07:58:09;101539.81;;;14.40;92.88
59043;BME280;44826;51.596;5.624;2023-05-12T08:00:35;101537.94;;;14.44;92.62
59043;BME280;44826;51.596;5.624;2023-05-12T08:03:01;101540.47;;;14.47;92.05
59043;BME280;44826;51.596;5.624;2023-05-12T08:05:26;101543.91;;;14.49;91.62
59043;BME280;44826;51.596;5.624;2023-05-12T08:07:51;101546.56;;;14.47;90.91
59043;BME280;44826;51.596;5.624;2023-05-12T08:10:16;101546.47;;;14.50;92.08
59043;BME280;44826;51.596;5.624;2023-05-12T08:12:43;101550.72;;;14.53;90.71
59043;BME280;44826;51.596;5.624;2023-05-12T08:15:08;101554.25;;;14.52;89.49
59043;BME280;44826;51.596;5.624;2023-05-12T08:17:34;101560.44;;;14.49;88.53
59043;BME280;44826;51.596;5.624;2023-05-12T08:20:00;101558.75;;;14.48;89.47
59043;BME280;44826;51.596;5.624;2023-05-12T08:22:28;101563.81;;;14.53;86.73
59043;BME280;44826;51.596;5.624;2023-05-12T08:24:53;101569.78;;;14.58;85.69
59043;BME280;44826;51.596;5.624;2023-05-12T08:27:18;101567.97;;;14.60;85.99
59043;BME280;44826;51.596;5.624;2023-05-12T08:29:44;101566.94;;;14.66;87.07
59043;BME280;44826;51.596;5.624;2023-05-12T08:32:10;101569.44;;;14.70;85.59
59043;BME280;44826;51.596;5.624;2023-05-12T08:34:36;101576.19;;;14.78;85.64
59043;BME280;44826;51.596;5.624;2023-05-12T08:37:01;101575.91;;;14.87;86.64
59043;BME280;44826;51.596;5.624;2023-05-12T08:39:26;101576.47;;;14.97;83.84
59043;BME280;44826;51.596;5.624;2023-05-12T08:42:18;101572.75;;;15.04;84.68
59043;BME280;44826;51.596;5.624;2023-05-12T08:44:47;101567.19;;;15.13;84.64
59043;BME280;44826;51.596;5.624;2023-05-12T08:47:12;101579.09;;;15.24;85.80
59043;BME280;44826;51.596;5.624;2023-05-12T08:49:41;101583.16;;;15.32;85.51
59043;BME280;44826;51.596;5.624;2023-05-12T08:52:08;101581.03;;;15.44;87.34
59043;BME280;44826;51.596;5.624;2023-05-12T08:54:36;101585.16;;;15.51;84.23
59043;BME280;44826;51.596;5.624;2023-05-12T08:57:03;101582.41;;;15.54;84.08
59043;BME280;44826;51.596;5.624;2023-05-12T08:59:28;101591.09;;;15.56;81.82
59043;BME280;44826;51.596;5.624;2023-05-12T09:01:54;101586.59;;;15.60;82.75
59043;BME280;44826;51.596;5.624;2023-05-12T09:04:19;101591.84;;;15.60;81.29
59043;BME280;44826;51.596;5.624;2023-05-12T09:06:45;101589.28;;;15.58;81.22
59043;BME280;44826;51.596;5.624;2023-05-12T09:09:12;101592.66;;;15.62;82.08
59043;BME280;44826;51.596;5.624;2023-05-12T09:11:39;101594.47;;;15.60;80.20
59043;BME280;44826;51.596;5.624;2023-05-12T09:14:22;101596.22;;;15.59;81.25
59043;BME280;44826;51.596;5.624;2023-05-12T09:16:54;101591.78;;;15.61;81.71
59043;BME280;44826;51.596;5.624;2023-05-12T09:19:22;101595.16;;;15.65;82.56
59043;BME280;44826;51.596;5.624;2023-05-12T09:21:48;101599.56;;;15.65;80.09
59043;BME280;44826;51.596;5.624;2023-05-12T09:24:13;101604.09;;;15.59;78.51
59043;BME280;44826;51.596;5.624;2023-05-12T09:26:49;101596.47;;;15.53;80.13
59043;BME280;44826;51.596;5.624;2023-05-12T09:29:15;101598.38;;;15.48;79.40
59043;BME280;44826;51.596;5.624;2023-05-12T09:31:51;101599.09;;;15.53;81.76
59043;BME280;44826;51.596;5.624;2023-05-12T09:34:17;101598.94;;;15.56;78.29
59043;BME280;44826;51.596;5.624;2023-05-12T09:36:43;101598.91;;;15.58;77.68
59043;BME280;44826;51.596;5.624;2023-05-12T09:39:10;101610.34;;;15.55;77.71
59043;BME280;44826;51.596;5.624;2023-05-12T09:41:40;101613.94;;;15.53;75.65
59043;BME280;44826;51.596;5.624;2023-05-12T09:44:06;101612.22;;;15.52;76.99
59043;BME280;44826;51.596;5.624;2023-05-12T09:46:32;101610.41;;;15.54;76.29
59043;BME280;44826;51.596;5.624;2023-05-12T09:48:58;101609.31;;;15.61;77.26
59043;BME280;44826;51.596;5.624;2023-05-12T09:51:25;101618.63;;;15.70;76.02
59043;BME280;44826;51.596;5.624;2023-05-12T09:53:51;101613.16;;;15.76;76.07
59043;BME280;44826;51.596;5.624;2023-05-12T09:56:17;101618.19;;;15.82;77.23
59043;BME280;44826;51.596;5.624;2023-05-12T09:58:44;101631.91;;;15.90;75.87
59043;BME280;44826;51.596;5.624;2023-05-12T10:01:12;101633.41;;;15.98;74.49
59043;BME280;44826;51.596;5.624;2023-05-12T10:03:39;101627.03;;;16.05;75.22
59043;BME280;44826;51.596;5.624;2023-05-12T10:06:52;101620.63;;;16.12;75.34
59043;BME280;44826;51.596;5.624;2023-05-12T10:09:10;101618.59;;;16.20;76.11
59043;BME280;44826;51.596;5.624;2023-05-12T10:11:39;101624.69;;;16.21;74.73
59043;BME280;44826;51.596;5.624;2023-05-12T10:14:05;101619.56;;;16.18;73.06
59043;BME280;44826;51.596;5.624;2023-05-12T10:16:34;101629.31;;;16.14;73.71
59043;BME280;44826;51.596;5.624;2023-05-12T10:19:03;101622.28;;;16.15;75.12
59043;BME280;44826;51.596;5.624;2023-05-12T10:21:30;101616.88;;;16.19;75.03
59043;BME280;44826;51.596;5.624;2023-05-12T10:23:55;101623.69;;;16.25;74.02
59043;BME280;44826;51.596;5.624;2023-05-12T10:26:21;101632.19;;;16.32;72.63
59043;BME280;44826;51.596;5.624;2023-05-12T10:28:47;101632.19;;;16.32;73.54
59043;BME280;44826;51.596;5.624;2023-05-12T10:31:13;101634.00;;;16.30;72.48
59043;BME280;44826;51.596;5.624;2023-05-12T10:33:38;101626.03;;;16.33;73.57
59043;BME280;44826;51.596;5.624;2023-05-12T10:36:04;101633.78;;;16.36;72.85
59043;BME280;44826;51.596;5.624;2023-05-12T10:38:40;101637.22;;;16.38;72.59
59043;BME280;44826;51.596;5.624;2023-05-12T10:41:05;101639.94;;;16.35;71.46
59043;BME280;44826;51.596;5.624;2023-05-12T10:43:39;101641.81;;;16.31;72.53
59043;BME280;44826;51.596;5.624;2023-05-12T10:46:06;101648.75;;;16.34;72.63
59043;BME280;44826;51.596;5.624;2023-05-12T10:48:32;101639.03;;;16.36;70.97
59043;BME280;44826;51.596;5.624;2023-05-12T10:51:06;101642.31;;;16.41;72.94
59043;BME280;44826;51.596;5.624;2023-05-12T10:53:35;101640.34;;;16.48;72.00
59043;BME280;44826;51.596;5.624;2023-05-12T10:56:05;101650.44;;;16.59;73.65
59043;BME280;44826;51.596;5.624;2023-05-12T10:58:31;101651.00;;;16.67;72.06
59043;BME280;44826;51.596;5.624;2023-05-12T11:01:04;101651.63;;;16.74;71.59
59043;BME280;44826;51.596;5.624;2023-05-12T11:03:30;101646.00;;;16.83;71.60
59043;BME280;44826;51.596;5.624;2023-05-12T11:05:59;101652.63;;;16.93;71.23
59043;BME280;44826;51.596;5.624;2023-05-12T11:08:25;101648.84;;;17.01;71.51
59043;BME280;44826;51.596;5.624;2023-05-12T11:10:50;101652.09;;;17.07;69.06
59043;BME280;44826;51.596;5.624;2023-05-12T11:13:16;101650.09;;;17.14;69.42
59043;BME280;44826;51.596;5.624;2023-05-12T11:15:43;101652.63;;;17.16;68.46
59043;BME280;44826;51.596;5.624;2023-05-12T11:18:08;101653.56;;;17.14;69.20
59043;BME280;44826;51.596;5.624;2023-05-12T11:20:34;101658.63;;;17.19;69.37
59043;BME280;44826;51.596;5.624;2023-05-12T11:22:59;101662.13;;;17.20;70.89
59043;BME280;44826;51.596;5.624;2023-05-12T11:25:26;101663.94;;;17.18;67.23
59043;BME280;44826;51.596;5.624;2023-05-12T11:27:52;101676.53;;;17.09;66.89
59043;BME280;44826;51.596;5.624;2023-05-12T11:30:17;101675.19;;;16.99;64.80
59043;BME280;44826;51.596;5.624;2023-05-12T11:32:43;101679.09;;;16.89;65.03
59043;BME280;44826;51.596;5.624;2023-05-12T11:35:14;101683.84;;;16.79;64.49
59043;BME280;44826;51.596;5.624;2023-05-12T11:37:41;101677.09;;;16.72;65.31
59043;BME280;44826;51.596;5.624;2023-05-12T11:40:15;101684.25;;;16.68;67.22
59043;BME280;44826;51.596;5.624;2023-05-12T11:42:40;101680.94;;;16.63;64.43
59043;BME280;44826;51.596;5.624;2023-05-12T11:47:45;101683.66;;;16.60;66.94
59043;BME280;44826;51.596;5.624;2023-05-12T11:50:10;101683.66;;;16.60;69.18
59043;BME280;44826;51.596;5.624;2023-05-12T11:52:36;101688.81;;;16.63;66.99
59043;BME280;44826;51.596;5.624;2023-05-12T11:55:01;101676.47;;;16.65;69.09
59043;BME280;44826;51.596;5.624;2023-05-12T11:57:31;101686.88;;;16.68;68.06
59043;BME280;44826;51.596;5.624;2023-05-12T11:59:57;101688.50;;;16.71;67.84
59043;BME280;44826;51.596;5.624;2023-05-12T12:02:24;101690.84;;;16.78;68.34
59043;BME280;44826;51.596;5.624;2023-05-12T12:04:50;101684.56;;;16.82;66.92
59043;BME280;44826;51.596;5.624;2023-05-12T12:07:15;101684.34;;;16.89;67.69
59043;BME280;44826;51.596;5.624;2023-05-12T12:09:41;101690.25;;;16.94;65.96
59043;BME280;44826;51.596;5.624;2023-05-12T12:12:08;101688.34;;;16.99;66.14
59043;BME280;44826;51.596;5.624;2023-05-12T12:14:35;101688.13;;;17.05;65.31
59043;BME280;44826;51.596;5.624;2023-05-12T12:17:02;101687.63;;;17.18;65.73
59043;BME280;44826;51.596;5.624;2023-05-12T12:19:28;101692.13;;;17.36;67.01
59043;BME280;44826;51.596;5.624;2023-05-12T12:21:56;101694.13;;;17.52;65.63
59043;BME280;44826;51.596;5.624;2023-05-12T12:24:23;101702.19;;;17.69;66.17
59043;BME280;44826;51.596;5.624;2023-05-12T12:26:48;101698.91;;;17.85;67.32
59043;BME280;44826;51.596;5.624;2023-05-12T12:29:14;101691.38;;;17.96;64.75
59043;BME280;44826;51.596;5.624;2023-05-12T12:31:39;101698.13;;;18.03;64.55
59043;BME280;44826;51.596;5.624;2023-05-12T12:34:05;101706.69;;;18.09;61.99
59043;BME280;44826;51.596;5.624;2023-05-12T12:36:31;101696.78;;;18.14;66.17
59043;BME280;44826;51.596;5.624;2023-05-12T12:38:57;101696.41;;;18.23;65.48
59043;BME280;44826;51.596;5.624;2023-05-12T12:41:22;101708.22;;;18.33;65.64
59043;BME280;44826;51.596;5.624;2023-05-12T12:43:47;101699.19;;;18.39;63.58